createdAt,value
2023-02-03T00:00:31.883Z,7.80
2023-02-03T00:02:58.879Z,7.80
2023-02-03T00:05:26.204Z,7.80
2023-02-03T00:07:53.575Z,7.80
2023-02-03T00:10:21.579Z,7.80
2023-02-03T00:12:56.389Z,7.80
2023-02-03T00:15:23.402Z,7.90
2023-02-03T00:17:50.196Z,7.90
2023-02-03T00:20:17.141Z,7.90
2023-02-03T00:22:44.030Z,7.90
2023-02-03T00:25:11.056Z,7.90
2023-02-03T00:27:37.980Z,8.00
2023-02-03T00:30:06.796Z,8.00
2023-02-03T00:32:33.708Z,8.00
2023-02-03T00:35:00.696Z,8.00
2023-02-03T00:37:27.481Z,8.00
2023-02-03T00:39:54.307Z,8.00
2023-02-03T00:42:21.192Z,8.00
2023-02-03T00:44:48.187Z,8.00
2023-02-03T00:47:14.989Z,8.00
2023-02-03T00:49:41.909Z,8.00
2023-02-03T00:52:08.759Z,8.00
2023-02-03T00:54:35.569Z,8.00
2023-02-03T00:57:02.392Z,8.00
2023-02-03T00:59:29.155Z,8.10
2023-02-03T01:01:56.024Z,8.00
2023-02-03T01:04:22.945Z,8.10
2023-02-03T01:06:49.873Z,8.00
2023-02-03T01:09:16.775Z,8.00
2023-02-03T01:11:43.612Z,8.00
2023-02-03T01:14:10.604Z,8.00
2023-02-03T01:16:38.570Z,8.00
2023-02-03T01:19:06.070Z,8.00
2023-02-03T01:21:33.605Z,8.00
2023-02-03T01:24:00.982Z,8.00
2023-02-03T01:26:28.072Z,8.00
2023-02-03T01:28:57.688Z,8.00
2023-02-03T01:31:29.271Z,8.10
2023-02-03T01:33:59.840Z,8.00
2023-02-03T01:36:28.791Z,8.00
2023-02-03T01:38:55.701Z,8.00
2023-02-03T01:41:33.396Z,8.00
2023-02-03T01:44:01.281Z,8.00
2023-02-03T01:46:39.454Z,8.00
2023-02-03T01:49:14.299Z,8.10
2023-02-03T01:51:43.734Z,8.10
2023-02-03T01:54:15.155Z,8.10
2023-02-03T01:56:47.996Z,8.00
2023-02-03T01:59:17.685Z,8.00
2023-02-03T02:01:45.185Z,8.00
2023-02-03T02:04:12.774Z,8.00
2023-02-03T02:06:39.622Z,8.00
2023-02-03T02:09:06.538Z,8.00
2023-02-03T02:11:34.737Z,8.00
2023-02-03T02:14:03.236Z,8.00
2023-02-03T02:16:50.079Z,8.00
2023-02-03T02:19:38.626Z,8.00
2023-02-03T02:22:50.206Z,8.00
2023-02-03T02:25:19.748Z,8.00
2023-02-03T02:27:58.748Z,8.00
2023-02-03T02:30:55.239Z,8.00
2023-02-03T02:33:44.560Z,8.00
2023-02-03T02:36:30.155Z,8.00
2023-02-03T02:39:15.448Z,8.00
2023-02-03T02:41:52.105Z,8.00
2023-02-03T02:44:24.878Z,8.00
2023-02-03T02:46:56.469Z,8.00
2023-02-03T02:49:33.289Z,8.10
2023-02-03T02:52:03.091Z,8.10
2023-02-03T02:54:32.055Z,8.10
2023-02-03T02:57:03.289Z,8.10
2023-02-03T02:59:30.575Z,8.10
2023-02-03T03:01:57.566Z,8.10
2023-02-03T03:04:27.707Z,8.10
2023-02-03T03:07:01.958Z,8.10
2023-02-03T03:09:52.146Z,8.10
2023-02-03T03:12:29.540Z,8.10
2023-02-03T03:15:06.951Z,8.10
2023-02-03T03:17:48.573Z,8.10
2023-02-03T03:20:20.914Z,8.20
2023-02-03T03:22:57.055Z,8.20
2023-02-03T03:26:13.547Z,8.20
2023-02-03T03:29:12.456Z,8.30
2023-02-03T03:31:40.140Z,8.30
2023-02-03T03:34:09.440Z,8.30
2023-02-03T03:36:47.285Z,8.30
2023-02-03T03:39:24.535Z,8.20
2023-02-03T03:42:00.979Z,8.20
2023-02-03T03:44:32.913Z,8.20
2023-02-03T03:47:35.384Z,8.20
2023-02-03T03:50:05.110Z,8.20
2023-02-03T03:52:35.813Z,8.20
2023-02-03T03:55:08.418Z,8.20
2023-02-03T03:57:46.758Z,8.20
2023-02-03T04:00:17.812Z,8.20
2023-02-03T04:02:51.557Z,8.20
2023-02-03T04:05:19.044Z,8.20
2023-02-03T04:07:47.500Z,8.20
2023-02-03T04:10:38.463Z,8.20
2023-02-03T04:13:06.901Z,8.20
2023-02-03T04:15:34.205Z,8.20
2023-02-03T04:18:04.252Z,8.20
2023-02-03T04:20:32.545Z,8.30
2023-02-03T04:22:59.894Z,8.30
2023-02-03T04:25:27.121Z,8.30
2023-02-03T04:27:55.590Z,8.30
2023-02-03T04:30:22.850Z,8.30
2023-02-03T04:32:49.934Z,8.30
2023-02-03T04:35:17.159Z,8.30
2023-02-03T04:37:44.028Z,8.30
2023-02-03T04:40:11.912Z,8.30
2023-02-03T04:42:39.454Z,8.30
2023-02-03T04:45:08.166Z,8.30
2023-02-03T04:47:35.128Z,8.30
2023-02-03T04:50:02.352Z,8.30
2023-02-03T04:52:29.233Z,8.30
2023-02-03T04:54:56.088Z,8.30
2023-02-03T04:57:23.093Z,8.30
2023-02-03T04:59:49.906Z,8.30
2023-02-03T05:02:16.745Z,8.30
2023-02-03T05:04:44.796Z,8.40
2023-02-03T05:07:11.835Z,8.40
2023-02-03T05:09:38.715Z,8.40
2023-02-03T05:12:05.747Z,8.40
2023-02-03T05:14:32.572Z,8.30
2023-02-03T05:16:59.392Z,8.40
2023-02-03T05:19:26.167Z,8.40
2023-02-03T05:21:53.228Z,8.40
2023-02-03T05:24:20.042Z,8.40
2023-02-03T05:26:46.852Z,8.40
2023-02-03T05:29:13.621Z,8.30
2023-02-03T05:31:40.558Z,8.30
2023-02-03T05:34:07.815Z,8.40
2023-02-03T05:36:34.777Z,8.40
2023-02-03T05:39:01.622Z,8.30
2023-02-03T05:41:46.918Z,8.40
2023-02-03T05:44:13.718Z,8.40
2023-02-03T05:46:40.695Z,8.40
2023-02-03T05:49:07.634Z,8.40
2023-02-03T05:51:34.614Z,8.40
2023-02-03T05:54:01.504Z,8.40
2023-02-03T05:56:28.298Z,8.40
2023-02-03T05:58:55.182Z,8.40
2023-02-03T06:01:25.318Z,8.40
2023-02-03T06:03:52.604Z,8.40
2023-02-03T06:06:19.519Z,8.40
2023-02-03T06:08:46.707Z,8.40
2023-02-03T06:11:13.741Z,8.40
2023-02-03T06:13:40.569Z,8.40
2023-02-03T06:16:07.523Z,8.40
2023-02-03T06:18:34.374Z,8.30
2023-02-03T06:21:01.884Z,8.40
2023-02-03T06:23:28.736Z,8.40
2023-02-03T06:25:55.560Z,8.40
2023-02-03T06:28:22.438Z,8.30
2023-02-03T06:30:53.269Z,8.40
2023-02-03T06:33:20.458Z,8.30
2023-02-03T06:35:47.330Z,8.30
2023-02-03T06:38:14.677Z,8.40
2023-02-03T06:40:41.454Z,8.40
2023-02-03T06:43:08.292Z,8.40
2023-02-03T06:45:35.169Z,8.40
2023-02-03T06:48:02.004Z,8.40
2023-02-03T06:50:29.277Z,8.50
2023-02-03T06:52:57.744Z,8.50
2023-02-03T06:55:24.814Z,8.60
2023-02-03T06:57:51.947Z,8.60
2023-02-03T07:00:19.626Z,8.60
2023-02-03T07:02:52.804Z,8.60
2023-02-03T07:05:19.683Z,8.70
2023-02-03T07:07:46.477Z,8.60
2023-02-03T07:10:13.279Z,8.70
2023-02-03T07:12:40.267Z,8.70
2023-02-03T07:15:07.510Z,8.70
2023-02-03T07:17:34.381Z,8.70
2023-02-03T07:20:01.167Z,8.70
2023-02-03T07:22:28.013Z,8.80
2023-02-03T07:24:54.799Z,8.80
2023-02-03T07:27:21.693Z,8.80
2023-02-03T07:29:48.585Z,8.80
2023-02-03T07:32:15.429Z,8.80
2023-02-03T07:34:42.472Z,8.80
2023-02-03T07:37:09.352Z,8.80
2023-02-03T07:39:36.163Z,8.90
2023-02-03T07:42:02.928Z,8.90
2023-02-03T07:44:29.829Z,8.80
2023-02-03T07:46:56.930Z,8.90
2023-02-03T07:49:23.746Z,8.90
2023-02-03T07:51:50.574Z,8.80
2023-02-03T07:54:17.525Z,8.90
2023-02-03T07:56:44.329Z,8.80
2023-02-03T07:59:11.193Z,8.80
2023-02-03T08:01:38.017Z,8.80
2023-02-03T08:04:05.745Z,8.80
2023-02-03T08:06:32.840Z,8.70
2023-02-03T08:08:59.832Z,8.70
2023-02-03T08:11:26.827Z,8.70
2023-02-03T08:13:53.678Z,8.60
2023-02-03T08:16:20.770Z,8.60
2023-02-03T08:18:47.554Z,8.60
2023-02-03T08:21:14.501Z,8.60
2023-02-03T08:23:41.320Z,8.50
2023-02-03T08:26:08.141Z,8.50
2023-02-03T08:28:35.004Z,8.50
2023-02-03T08:31:02.131Z,8.50
2023-02-03T08:33:29.308Z,8.50
2023-02-03T08:35:56.981Z,8.40
2023-02-03T08:38:23.976Z,8.40
2023-02-03T08:40:50.924Z,8.40
2023-02-03T08:43:17.797Z,8.30
2023-02-03T08:45:44.719Z,8.40
2023-02-03T08:48:11.618Z,8.30
2023-02-03T08:50:40.901Z,8.40
2023-02-03T08:53:07.751Z,8.40
2023-02-03T08:55:34.771Z,8.40
2023-02-03T08:58:01.934Z,8.40
2023-02-03T09:00:29.056Z,8.40
2023-02-03T09:02:56.208Z,8.40
2023-02-03T09:05:23.121Z,8.40
2023-02-03T09:07:50.026Z,8.50
2023-02-03T09:10:17.927Z,8.50
2023-02-03T09:12:45.140Z,8.50
2023-02-03T09:15:12.169Z,8.50
2023-02-03T09:17:39.852Z,8.50
2023-02-03T09:20:07.571Z,8.50
2023-02-03T09:22:36.276Z,8.50
2023-02-03T09:25:03.270Z,8.50
2023-02-03T09:27:30.094Z,8.50
2023-02-03T09:29:58.626Z,8.50
2023-02-03T09:32:25.496Z,8.50
2023-02-03T09:34:52.307Z,8.50
2023-02-03T09:37:19.201Z,8.50
2023-02-03T09:39:46.136Z,8.50
2023-02-03T09:42:51.162Z,8.60
2023-02-03T09:45:20.464Z,8.50
2023-02-03T09:47:53.990Z,8.60
2023-02-03T09:50:23.943Z,8.60
2023-02-03T09:52:52.277Z,8.60
2023-02-03T09:55:45.380Z,8.70
2023-02-03T09:58:19.661Z,8.70
2023-02-03T10:01:17.329Z,8.80
2023-02-03T10:03:50.798Z,8.80
2023-02-03T10:06:44.724Z,8.90
2023-02-03T10:09:39.912Z,8.90
2023-02-03T10:12:06.567Z,9.00
2023-02-03T10:14:38.865Z,9.00
2023-02-03T10:17:14.620Z,9.10
2023-02-03T10:19:50.012Z,9.20
2023-02-03T10:22:25.923Z,9.20
2023-02-03T10:25:08.615Z,9.30
2023-02-03T10:27:37.311Z,9.40
2023-02-03T10:30:24.142Z,9.40
2023-02-03T10:33:10.525Z,9.50
2023-02-03T10:35:45.742Z,9.50
2023-02-03T10:38:19.403Z,9.60
2023-02-03T10:40:47.379Z,9.60
2023-02-03T10:43:37.690Z,9.70
2023-02-03T10:46:04.940Z,9.80
2023-02-03T10:48:31.985Z,9.90
2023-02-03T10:50:59.389Z,9.90
2023-02-03T10:53:36.863Z,10.10
2023-02-03T10:56:16.056Z,10.10
2023-02-03T10:58:55.358Z,10.20
2023-02-03T11:01:28.309Z,10.20
2023-02-03T11:04:04.207Z,10.30
2023-02-03T11:06:33.176Z,10.30
2023-02-03T11:09:00.315Z,10.30
2023-02-03T11:11:34.084Z,10.40
2023-02-03T11:14:03.878Z,10.40
2023-02-03T11:16:33.835Z,10.40
2023-02-03T11:19:05.795Z,10.40
2023-02-03T11:21:38.902Z,10.30
2023-02-03T11:24:26.825Z,10.40
2023-02-03T11:27:07.524Z,10.40
2023-02-03T11:29:37.213Z,10.30
2023-02-03T11:32:17.037Z,10.30
2023-02-03T11:35:03.683Z,10.30
2023-02-03T11:37:33.793Z,10.30
2023-02-03T11:40:12.532Z,10.20
2023-02-03T11:42:42.457Z,10.10
2023-02-03T11:45:18.239Z,10.10
2023-02-03T11:47:51.244Z,10.00
2023-02-03T11:50:56.076Z,10.00
2023-02-03T11:53:24.135Z,10.00
2023-02-03T11:56:20.444Z,10.00
2023-02-03T11:59:03.167Z,10.00
2023-02-03T12:01:32.763Z,10.00
2023-02-03T12:04:15.158Z,10.10
2023-02-03T12:06:50.015Z,10.10
2023-02-03T12:09:46.507Z,10.10
2023-02-03T12:12:40.987Z,10.10
2023-02-03T12:15:23.663Z,10.20
2023-02-03T12:18:17.524Z,10.30
2023-02-03T12:21:10.415Z,10.30
2023-02-03T12:24:10.731Z,10.40
2023-02-03T12:26:50.980Z,10.50
2023-02-03T12:29:43.211Z,10.50
2023-02-03T12:32:48.332Z,10.50
2023-02-03T12:35:36.425Z,10.50
2023-02-03T12:38:31.857Z,10.40
2023-02-03T12:41:08.530Z,10.40
2023-02-03T12:43:37.808Z,10.40
2023-02-03T12:46:18.155Z,10.40
2023-02-03T12:48:58.490Z,10.40
2023-02-03T12:51:35.133Z,10.50
2023-02-03T12:54:25.780Z,10.40
2023-02-03T12:56:55.454Z,10.50
2023-02-03T12:59:25.243Z,10.40
2023-02-03T13:02:00.782Z,10.40
2023-02-03T13:04:53.827Z,10.30
2023-02-03T13:07:40.220Z,10.30
2023-02-03T13:10:21.884Z,10.10
2023-02-03T13:12:56.479Z,10.10
2023-02-03T13:15:34.489Z,9.90
2023-02-03T13:18:29.573Z,9.90
2023-02-03T13:20:56.818Z,9.80
2023-02-03T13:23:24.915Z,9.80
2023-02-03T13:25:58.020Z,9.80
2023-02-03T13:28:49.159Z,9.70
2023-02-03T13:31:55.601Z,9.80
2023-02-03T13:34:44.403Z,9.80
2023-02-03T13:37:45.541Z,9.80
2023-02-03T13:40:30.887Z,9.70
2023-02-03T13:43:06.188Z,9.70
2023-02-03T13:45:44.822Z,9.60
2023-02-03T13:48:22.108Z,9.60
2023-02-03T13:50:51.506Z,9.50
2023-02-03T13:53:22.014Z,9.40
2023-02-03T13:56:04.424Z,9.40
2023-02-03T13:58:34.011Z,9.50
2023-02-03T14:01:05.706Z,9.40
2023-02-03T14:03:32.737Z,9.40
2023-02-03T14:06:01.660Z,9.40
2023-02-03T14:08:28.541Z,9.40
2023-02-03T14:11:33.245Z,9.40
2023-02-03T14:14:09.186Z,9.30
2023-02-03T14:16:44.452Z,9.30
2023-02-03T14:19:13.538Z,9.30
2023-02-03T14:21:52.238Z,9.40
2023-02-03T14:24:20.227Z,9.30
2023-02-03T14:26:50.685Z,9.30
2023-02-03T14:29:37.359Z,9.30
2023-02-03T14:32:06.483Z,9.30
2023-02-03T14:34:55.052Z,9.40
2023-02-03T14:37:27.672Z,9.40
2023-02-03T14:40:16.124Z,9.30
2023-02-03T14:43:13.605Z,9.30
2023-02-03T14:45:59.117Z,9.30
2023-02-03T14:48:44.589Z,9.30
2023-02-03T14:51:32.960Z,9.20
2023-02-03T14:54:16.026Z,9.20
2023-02-03T14:57:16.873Z,9.10
2023-02-03T14:59:48.117Z,9.10
2023-02-03T15:02:23.237Z,9.00
2023-02-03T15:04:52.175Z,9.00
2023-02-03T15:07:46.618Z,8.90
2023-02-03T15:10:22.459Z,8.90
2023-02-03T15:12:51.756Z,8.90
2023-02-03T15:15:24.543Z,8.90
2023-02-03T15:17:54.343Z,8.90
2023-02-03T15:20:41.408Z,8.80
2023-02-03T15:23:21.746Z,8.80
2023-02-03T15:26:19.941Z,8.80
2023-02-03T15:29:04.109Z,8.70
2023-02-03T15:31:52.497Z,8.70
2023-02-03T15:34:29.380Z,8.70
2023-02-03T15:37:01.695Z,8.60
2023-02-03T15:39:47.384Z,8.60
2023-02-03T15:42:25.791Z,8.50
2023-02-03T15:45:27.778Z,8.50
2023-02-03T15:48:05.209Z,8.40
2023-02-03T15:50:36.510Z,8.40
2023-02-03T15:53:15.520Z,8.30
2023-02-03T15:55:46.811Z,8.30
2023-02-03T15:58:18.148Z,8.20
2023-02-03T16:00:49.621Z,8.20
2023-02-03T16:03:37.425Z,8.10
2023-02-03T16:06:30.642Z,8.10
2023-02-03T16:08:59.579Z,8.10
2023-02-03T16:11:35.289Z,8.00
2023-02-03T16:14:11.433Z,8.00
2023-02-03T16:17:04.754Z,7.90
2023-02-03T16:19:34.515Z,7.90
2023-02-03T16:22:01.420Z,7.90
2023-02-03T16:24:46.204Z,7.80
2023-02-03T16:27:30.697Z,7.80
2023-02-03T16:30:27.107Z,7.70
2023-02-03T16:33:27.497Z,7.70
2023-02-03T16:36:14.233Z,7.60
2023-02-03T16:39:09.116Z,7.60
2023-02-03T16:41:56.046Z,7.60
2023-02-03T16:44:41.864Z,7.60
2023-02-03T16:47:45.703Z,7.50
2023-02-03T16:50:42.874Z,7.50
2023-02-03T16:53:19.690Z,7.50
2023-02-03T16:55:47.008Z,7.40
2023-02-03T16:58:14.269Z,7.40
2023-02-03T17:00:46.209Z,7.40
2023-02-03T17:03:19.028Z,7.50
2023-02-03T17:05:46.874Z,7.40
2023-02-03T17:08:14.505Z,7.40
2023-02-03T17:10:42.893Z,7.40
2023-02-03T17:13:09.897Z,7.40
2023-02-03T17:15:45.323Z,7.40
2023-02-03T17:18:15.136Z,7.40
2023-02-03T17:20:43.827Z,7.40
2023-02-03T17:23:11.714Z,7.40
2023-02-03T17:25:39.527Z,7.40
2023-02-03T17:28:12.438Z,7.50
2023-02-03T17:30:39.985Z,7.50
2023-02-03T17:33:13.989Z,7.50
2023-02-03T17:35:45.612Z,7.50
2023-02-03T17:38:13.933Z,7.50
2023-02-03T17:54:27.625Z,7.60
2023-02-03T17:56:54.476Z,7.60
2023-02-03T17:59:21.732Z,7.60
2023-02-03T18:01:48.747Z,7.60
2023-02-03T18:04:15.600Z,7.60
2023-02-03T18:06:42.500Z,7.60
2023-02-03T18:09:10.523Z,7.60
2023-02-03T18:11:38.067Z,7.60
2023-02-03T18:14:05.549Z,7.60
2023-02-03T18:16:34.812Z,7.60
2023-02-03T18:19:05.041Z,7.60
2023-02-03T18:21:32.661Z,7.60
2023-02-03T18:24:01.786Z,7.60
2023-02-03T18:26:34.370Z,7.50
2023-02-03T18:29:02.397Z,7.50
2023-02-03T18:31:29.455Z,7.50
2023-02-03T18:34:00.643Z,7.50
2023-02-03T18:36:27.658Z,7.50
2023-02-03T18:38:54.482Z,7.50
2023-02-03T18:41:24.334Z,7.40
2023-02-03T18:43:51.793Z,7.40
2023-02-03T18:46:22.976Z,7.40
2023-02-03T18:48:50.637Z,7.30
2023-02-03T18:51:19.408Z,7.30
2023-02-03T18:53:46.857Z,7.20
2023-02-03T18:56:22.773Z,7.20
2023-02-03T18:58:49.826Z,7.20
2023-02-03T19:01:28.241Z,7.20
2023-02-03T19:03:56.742Z,7.20
2023-02-03T19:06:24.741Z,7.20
2023-02-03T19:08:51.789Z,7.20
2023-02-03T19:11:20.494Z,7.10
2023-02-03T19:13:47.753Z,7.10
2023-02-03T19:16:17.026Z,7.00
2023-02-03T19:18:47.207Z,7.00
2023-02-03T19:21:14.857Z,7.00
2023-02-03T19:23:42.960Z,6.90
2023-02-03T19:26:10.543Z,6.90
2023-02-03T19:28:38.376Z,6.90
2023-02-03T19:31:15.114Z,6.90
2023-02-03T19:33:42.821Z,6.90
2023-02-03T19:36:10.657Z,6.90
2023-02-03T19:38:37.958Z,6.80
2023-02-03T19:41:07.251Z,6.80
2023-02-03T19:43:34.227Z,6.80
2023-02-03T19:46:02.272Z,6.80
2023-02-03T19:48:29.176Z,6.80
2023-02-03T19:50:56.037Z,6.80
2023-02-03T19:53:24.293Z,6.80
2023-02-03T19:55:52.038Z,6.80
2023-02-03T19:58:19.156Z,6.80
2023-02-03T20:00:46.188Z,6.80
2023-02-03T20:03:13.025Z,6.80
2023-02-03T20:05:40.068Z,6.80
2023-02-03T20:08:06.975Z,6.80
2023-02-03T20:10:33.836Z,6.80
2023-02-03T20:13:01.133Z,6.80
2023-02-03T20:15:28.163Z,6.80
2023-02-03T20:23:41.027Z,6.80
2023-02-03T20:26:07.995Z,6.80
2023-02-03T20:28:35.444Z,6.80
2023-02-03T20:31:02.679Z,6.80
2023-02-03T20:33:31.088Z,6.80
2023-02-03T20:35:58.723Z,6.80
2023-02-03T20:38:25.868Z,6.80
2023-02-03T20:40:52.755Z,6.80
2023-02-03T20:43:25.319Z,6.80
2023-02-03T20:45:52.445Z,6.80
2023-02-03T20:48:22.404Z,6.80
2023-02-03T20:50:50.343Z,6.80
2023-02-03T20:53:22.914Z,6.80
2023-02-03T20:55:50.801Z,6.80
2023-02-03T20:58:26.226Z,6.80
2023-02-03T21:00:53.636Z,6.80
2023-02-03T21:03:39.333Z,6.70
2023-02-03T21:06:16.004Z,6.70
2023-02-03T21:08:44.525Z,6.60
2023-02-03T21:11:17.521Z,6.60
2023-02-03T21:13:45.982Z,6.60
2023-02-03T21:16:22.990Z,6.60
2023-02-03T21:18:53.924Z,6.60
2023-02-03T21:21:27.336Z,6.50
2023-02-03T21:23:55.500Z,6.50
2023-02-03T21:26:25.212Z,6.50
2023-02-03T21:28:57.042Z,6.50
2023-02-03T21:31:30.809Z,6.50
2023-02-03T21:34:00.328Z,6.50
2023-02-03T21:36:31.393Z,6.50
2023-02-03T21:39:00.150Z,6.40
2023-02-03T21:41:32.851Z,6.50
2023-02-03T21:44:00.493Z,6.50
2023-02-03T21:46:27.284Z,6.50
2023-02-03T21:48:58.771Z,6.60
2023-02-03T21:51:38.711Z,6.60
2023-02-03T21:54:23.806Z,6.60
2023-02-03T21:56:50.853Z,6.60
2023-02-03T21:59:23.209Z,6.60
2023-02-03T22:01:50.296Z,6.60
2023-02-03T22:04:17.241Z,6.70
2023-02-03T22:06:49.008Z,6.70
2023-02-03T22:09:18.650Z,6.70
2023-02-03T22:11:45.596Z,6.70
2023-02-03T22:14:13.796Z,6.70
2023-02-03T22:16:40.791Z,6.70
2023-02-03T22:19:08.158Z,6.70
2023-02-03T22:21:35.493Z,6.70
2023-02-03T22:24:02.843Z,6.70
2023-02-03T22:26:29.836Z,6.60
2023-02-03T22:28:56.890Z,6.60
2023-02-03T22:31:23.910Z,6.60
2023-02-03T22:33:50.729Z,6.50
2023-02-03T22:36:17.712Z,6.50
2023-02-03T22:38:44.600Z,6.40
2023-02-03T22:41:12.934Z,6.30
2023-02-03T22:43:40.600Z,6.30
2023-02-03T22:46:07.665Z,6.20
2023-02-03T22:48:35.003Z,6.10
2023-02-03T22:51:02.386Z,6.10
2023-02-03T22:53:29.485Z,6.00
2023-02-03T22:55:56.658Z,5.90
2023-02-03T22:58:23.530Z,5.90
2023-02-03T23:00:50.373Z,5.80
2023-02-03T23:03:17.238Z,5.80
2023-02-03T23:05:44.145Z,5.70
2023-02-03T23:08:11.150Z,5.70
2023-02-03T23:10:38.022Z,5.70
2023-02-03T23:13:04.948Z,5.70
2023-02-03T23:15:31.819Z,5.70
2023-02-03T23:17:58.745Z,5.70
2023-02-03T23:20:25.761Z,5.60
2023-02-03T23:22:52.682Z,5.60
2023-02-03T23:25:19.541Z,5.60
2023-02-03T23:27:46.526Z,5.50
2023-02-03T23:30:14.055Z,5.50
2023-02-03T23:32:41.012Z,5.50
2023-02-03T23:35:27.188Z,5.50
2023-02-03T23:37:54.342Z,5.50
2023-02-03T23:40:21.291Z,5.50
2023-02-03T23:42:48.295Z,5.50
2023-02-03T23:45:15.571Z,5.50
2023-02-03T23:47:44.392Z,5.60
2023-02-03T23:50:14.619Z,5.60
2023-02-03T23:52:41.796Z,5.70
2023-02-03T23:55:14.146Z,5.70
2023-02-03T23:57:43.841Z,5.70
